Time;durP1;ratioP1;P1;durP2;ratioP2;P2;SDS_P1;SDS_P2;PMS_P1;PMS_P2;Temp;Humidity;BMP_temperature;BMP_pressure;BME280_temperature;BME280_humidity;BME280_pressure;Samples;Min_cycle;Max_cycle;Signal;HPM_P1;HPM_P2
2023/01/05 00:01:18;;;;;;;36.35;21.00;;;;;;;8.65;85.45;100994.34;5036192;28;20032;-27
2023/01/05 00:03:43;;;;;;;24.88;15.82;;;;;;;8.81;84.63;100988.84;5070755;28;20029;-27
2023/01/05 00:06:11;;;;;;;29.13;16.25;;;;;;;8.76;84.15;100982.41;5070305;28;20111;-30
2023/01/05 00:08:37;;;;;;;26.60;15.82;;;;;;;8.96;83.60;100993.31;5079091;28;20028;-29
2023/01/05 00:22:29;;;;;;;40.75;27.00;;;;;;;8.82;84.11;100979.84;5077440;28;20064;-27
2023/01/05 00:25:00;;;;;;;29.90;16.33;;;;;;;8.96;83.31;100985.34;5075257;28;20024;-29
2023/01/05 00:27:26;;;;;;;26.60;14.70;;;;;;;8.80;82.96;100971.22;5083650;28;20055;-30
2023/01/05 00:29:51;;;;;;;26.90;15.32;;;;;;;8.81;83.31;100967.56;5086952;28;20500;-28
2023/01/05 00:32:17;;;;;;;23.45;13.25;;;;;;;8.91;82.90;100977.06;5077930;28;20042;-27
2023/01/05 00:34:42;;;;;;;24.08;15.00;;;;;;;8.82;83.80;100989.66;5080503;28;20069;-28
2023/01/05 00:37:08;;;;;;;25.08;14.40;;;;;;;8.79;84.13;100982.88;5085582;28;20400;-27
2023/01/05 00:39:33;;;;;;;25.55;14.27;;;;;;;8.94;82.53;100968.75;5090002;28;20111;-28
2023/01/05 00:41:58;;;;;;;24.45;14.45;;;;;;;8.98;82.42;100957.53;5090076;28;20051;-30
2023/01/05 00:44:24;;;;;;;26.65;14.43;;;;;;;8.87;82.80;100959.84;5090233;28;20034;-26
2023/01/05 00:46:50;;;;;;;26.23;14.35;;;;;;;8.87;83.32;100979.31;5090224;28;20051;-28
2023/01/05 00:49:15;;;;;;;23.23;13.45;;;;;;;8.83;82.95;100954.09;5090240;28;20028;-29
2023/01/05 00:51:40;;;;;;;23.98;14.13;;;;;;;9.04;82.66;100971.94;5090027;28;20032;-29
2023/01/05 00:54:06;;;;;;;24.83;13.90;;;;;;;8.97;82.11;100950.59;5089408;28;20020;-27
2023/01/05 00:56:31;;;;;;;24.13;14.00;;;;;;;8.91;82.92;100966.44;5090074;28;20024;-27
2023/01/05 00:58:57;;;;;;;25.98;14.13;;;;;;;8.80;82.95;100971.22;5089864;28;20028;-28
2023/01/05 01:01:22;;;;;;;23.75;14.10;;;;;;;8.83;82.46;100970.06;5089903;28;20028;-29
2023/01/05 01:03:48;;;;;;;26.58;15.63;;;;;;;8.72;82.31;100952.69;5089672;28;20024;-28
2023/01/05 01:06:14;;;;;;;23.42;14.55;;;;;;;8.81;82.55;100962.25;5089603;28;20514;-29
2023/01/05 01:08:39;;;;;;;25.42;15.13;;;;;;;8.76;83.29;100963.81;5089622;28;20520;-29
2023/01/05 01:11:07;;;;;;;26.13;14.57;;;;;;;8.66;82.90;100940.16;5090157;28;20114;-26
2023/01/05 01:13:33;;;;;;;27.17;15.63;;;;;;;8.59;83.10;100932.09;5089781;28;20056;-27
2023/01/05 01:16:05;;;;;;;25.13;14.50;;;;;;;8.68;82.08;100932.81;5089527;28;20059;-26
2023/01/05 01:18:31;;;;;;;27.67;15.70;;;;;;;8.55;82.56;100935.31;5089583;28;20039;-26
2023/01/05 01:20:56;;;;;;;26.27;14.32;;;;;;;8.42;83.07;100926.16;5089462;28;20024;-27
2023/01/05 01:23:21;;;;;;;23.88;13.57;;;;;;;8.44;83.55;100940.06;5089602;28;20086;-27
2023/01/05 01:25:47;;;;;;;25.05;14.35;;;;;;;8.51;83.07;100944.66;5089656;28;20089;-29
2023/01/05 01:28:12;;;;;;;23.63;14.13;;;;;;;8.50;83.49;100933.22;5071223;28;20127;-30
2023/01/05 01:30:38;;;;;;;24.83;14.77;;;;;;;8.57;82.97;100943.94;5089526;28;20031;-26
2023/01/05 01:33:04;;;;;;;27.63;15.23;;;;;;;8.58;83.00;100945.56;5089129;28;20031;-26
2023/01/05 01:35:29;;;;;;;28.90;14.73;;;;;;;8.72;82.49;100933.28;5071323;28;20119;-28
2023/01/05 01:37:55;;;;;;;25.73;15.48;;;;;;;8.45;82.93;100916.97;5089055;28;20024;-29
2023/01/05 01:40:20;;;;;;;25.55;14.85;;;;;;;8.62;82.97;100920.25;5071069;28;20039;-28
2023/01/05 01:42:45;;;;;;;29.70;15.60;;;;;;;8.64;82.81;100915.56;5071261;28;20551;-27
2023/01/05 01:45:24;;;;;;;42.30;23.83;;;;;;;8.71;82.90;100921.81;5089736;28;20020;-28
2023/01/05 01:47:57;;;;;;;28.15;15.80;;;;;;;8.54;83.56;100929.19;5070534;28;20130;-28
2023/01/05 01:50:28;;;;;;;27.65;15.25;;;;;;;8.39;83.64;100899.88;5089056;28;20032;-28
2023/01/05 01:53:02;;;;;;;25.23;13.85;;;;;;;8.40;83.75;100900.72;5088909;28;20063;-28
2023/01/05 01:55:30;;;;;;;24.88;15.95;;;;;;;8.39;84.36;100917.69;5089111;28;20480;-26
2023/01/05 01:57:56;;;;;;;24.30;14.13;;;;;;;8.37;84.76;100912.53;5089098;28;20461;-29
2023/01/05 02:00:22;;;;;;;23.00;13.65;;;;;;;8.23;84.47;100894.75;5088807;28;20032;-26
2023/01/05 02:02:49;;;;;;;27.25;15.07;;;;;;;8.27;84.55;100887.25;5088835;28;20082;-27
2023/01/05 02:05:18;;;;;;;23.85;14.75;;;;;;;8.29;84.72;100883.41;5089235;28;20032;-26
2023/01/05 02:07:46;;;;;;;24.65;13.88;;;;;;;8.40;84.05;100884.78;5089076;28;20567;-27
2023/01/05 02:10:15;;;;;;;24.98;13.07;;;;;;;8.38;83.91;100871.69;5070768;28;20020;-28
2023/01/05 02:12:56;;;;;;;25.25;14.25;;;;;;;8.48;83.40;100875.91;5088767;28;20055;-27
2023/01/05 02:15:33;;;;;;;24.73;14.20;;;;;;;8.37;84.24;100890.47;5088869;28;20044;-28
2023/01/05 02:18:22;;;;;;;24.85;14.65;;;;;;;8.47;83.91;100885.72;5088887;28;20052;-28
2023/01/05 02:21:25;;;;;;;23.02;13.65;;;;;;;8.45;83.85;100883.22;5050523;28;20052;-26
2023/01/05 02:24:21;;;;;;;23.50;13.63;;;;;;;8.16;85.43;100873.41;5088845;28;20628;-27
2023/01/05 02:26:46;;;;;;;24.52;13.75;;;;;;;7.96;86.23;100889.06;5088854;28;20032;-28
2023/01/05 02:30:04;;;;;;;23.17;13.60;;;;;;;8.25;84.82;100882.13;5070632;28;20073;-28
2023/01/05 02:32:42;;;;;;;25.67;14.90;;;;;;;8.31;84.63;100881.38;5026282;28;20117;-27
2023/01/05 02:35:33;;;;;;;27.92;15.45;;;;;;;8.25;85.15;100882.97;5080644;28;20058;-29
2023/01/05 02:38:24;;;;;;;24.38;14.20;;;;;;;8.22;85.47;100877.19;5070640;28;20044;-29
2023/01/05 02:40:56;;;;;;;28.83;15.70;;;;;;;8.05;85.37;100856.09;5088979;28;20024;-27
2023/01/05 02:43:21;;;;;;;25.40;15.05;;;;;;;8.14;85.58;100864.00;5088686;28;20062;-28
2023/01/05 02:45:47;;;;;;;26.55;16.25;;;;;;;8.25;85.24;100871.47;5070626;28;20020;-27
2023/01/05 02:48:13;;;;;;;25.80;15.00;;;;;;;8.17;85.09;100847.66;5088360;28;20027;-27
2023/01/05 02:51:00;;;;;;;27.98;15.98;;;;;;;8.38;85.22;100865.53;5088453;28;20407;-28
2023/01/05 02:53:46;;;;;;;25.17;15.00;;;;;;;8.41;84.68;100860.69;5088610;28;20028;-26
2023/01/05 02:56:23;;;;;;;28.70;15.88;;;;;;;8.43;84.24;100860.50;5070307;28;20028;-26
2023/01/05 02:58:57;;;;;;;27.17;15.90;;;;;;;8.33;84.79;100834.19;5088548;28;20488;-27
2023/01/05 03:01:24;;;;;;;28.95;16.45;;;;;;;8.44;84.88;100855.03;5091775;28;20560;-29
2023/01/05 03:04:13;;;;;;;31.83;17.10;;;;;;;8.53;84.12;100852.25;5073847;28;20059;-27
2023/01/05 03:06:47;;;;;;;27.13;15.95;;;;;;;8.37;84.02;100848.75;5092052;28;20061;-28
2023/01/05 03:09:15;;;;;;;27.55;15.65;;;;;;;8.23;83.77;100858.41;5073910;28;20032;-27
2023/01/05 03:14:38;;;;;;;25.48;14.63;;;;;;;8.13;84.84;100851.69;5092247;28;20110;-28
2023/01/05 03:17:07;;;;;;;27.42;15.73;;;;;;;8.00;84.20;100821.28;5091957;28;20115;-27
2023/01/05 03:19:35;;;;;;;26.38;15.95;;;;;;;8.02;84.36;100837.88;5073528;28;20636;-29
2023/01/05 03:35:57;;;;;;;25.92;15.93;;;;;;;7.44;85.40;100816.38;5091735;28;20093;-27
2023/01/05 03:38:43;;;;;;;26.77;16.15;;;;;;;7.47;85.08;100809.06;5091195;28;20024;-29
2023/01/05 03:41:11;;;;;;;29.20;15.98;;;;;;;7.30;84.57;100797.78;5091732;28;20036;-26
2023/01/05 03:43:37;;;;;;;;;;;;;;;7.30;85.31;100819.00;5091894;28;20081;-28
2023/01/05 03:46:10;;;;;;;29.02;16.05;;;;;;;7.10;84.54;100803.56;5091036;28;19912;-26
2023/01/05 03:48:36;;;;;;;29.67;17.02;;;;;;;7.10;85.72;100814.19;5091257;28;20024;-27
2023/01/05 03:51:01;;;;;;;29.83;15.25;;;;;;;6.97;84.89;100798.03;5090978;28;20039;-27
2023/01/05 03:53:27;;;;;;;26.55;14.93;;;;;;;6.89;84.97;100816.66;5091000;28;20747;-28
2023/01/05 03:55:52;;;;;;;28.27;17.05;;;;;;;6.81;84.94;100805.09;5072985;28;20463;-27
2023/01/05 03:58:17;;;;;;;27.58;15.95;;;;;;;6.94;86.45;100814.28;5072718;28;20487;-28
2023/01/05 04:00:43;;;;;;;26.17;14.70;;;;;;;6.92;85.92;100821.59;5072765;28;20032;-28
2023/01/05 04:03:09;;;;;;;23.67;14.05;;;;;;;6.71;86.23;100783.28;5090985;28;20081;-26
2023/01/05 04:05:35;;;;;;;24.67;14.90;;;;;;;6.76;84.46;100817.22;5090767;28;20051;-27
2023/01/05 04:08:01;;;;;;;22.23;14.25;;;;;;;6.68;85.84;100807.53;5090545;28;20027;-28
2023/01/05 04:10:26;;;;;;;24.20;13.30;;;;;;;6.50;85.86;100781.28;5090437;28;20038;-26
2023/01/05 04:12:51;;;;;;;25.98;14.82;;;;;;;6.52;86.62;100791.69;5090476;28;20039;-27
2023/01/05 04:15:17;;;;;;;27.15;14.63;;;;;;;6.44;87.56;100798.69;5090800;28;20581;-28
2023/01/05 04:17:42;;;;;;;24.63;13.88;;;;;;;6.15;88.24;100799.34;5090850;28;20069;-26
2023/01/05 04:20:08;;;;;;;24.05;13.75;;;;;;;6.01;88.76;100777.03;5091000;28;20032;-29
2023/01/05 04:22:33;;;;;;;28.27;15.57;;;;;;;5.95;89.66;100809.50;5090457;28;20074;-26
2023/01/05 04:24:59;;;;;;;30.70;16.80;;;;;;;5.81;90.32;100796.94;5072376;28;20496;-28
2023/01/05 04:27:24;;;;;;;27.92;16.48;;;;;;;5.60;90.87;100787.72;5090272;28;20032;-28
2023/01/05 04:29:50;;;;;;;32.15;17.13;;;;;;;5.53;90.92;100786.72;5090541;28;20027;-26
2023/01/05 04:32:15;;;;;;;32.45;16.25;;;;;;;5.39;91.39;100793.53;5090075;28;20420;-27
2023/01/05 04:34:40;;;;;;;31.30;16.65;;;;;;;5.23;92.80;100794.38;5090243;28;20063;-26
2023/01/05 04:37:06;;;;;;;29.45;16.65;;;;;;;5.14;94.13;100805.94;5090232;28;20119;-28
2023/01/05 04:39:31;;;;;;;30.08;17.63;;;;;;;5.14;94.71;100811.22;5090356;28;20096;-25
2023/01/05 04:41:57;;;;;;;28.65;16.27;;;;;;;5.04;94.92;100790.22;5072102;28;20035;-28
2023/01/05 04:44:22;;;;;;;26.10;16.27;;;;;;;5.15;94.08;100807.59;5090189;28;20112;-26
2023/01/05 04:46:48;;;;;;;27.73;15.60;;;;;;;4.96;93.84;100782.28;5090464;28;20043;-25
2023/01/05 04:49:13;;;;;;;27.58;16.42;;;;;;;5.09;94.23;100800.31;5090214;28;20032;-26
2023/01/05 04:51:38;;;;;;;30.23;17.27;;;;;;;5.03;94.14;100766.63;5071395;28;20032;-27
2023/01/05 04:54:04;;;;;;;28.20;17.80;;;;;;;5.49;93.21;100811.84;5089926;28;20031;-26
2023/01/05 04:56:29;;;;;;;30.52;18.10;;;;;;;5.47;93.46;100805.91;5090002;28;20039;-26
2023/01/05 04:58:55;;;;;;;25.85;16.98;;;;;;;5.38;93.63;100785.75;5089991;28;20106;-28
2023/01/05 05:01:20;;;;;;;40.17;24.20;;;;;;;5.54;94.63;100795.50;5089849;28;20030;-26
2023/01/05 05:03:46;;;;;;;57.70;33.50;;;;;;;5.59;93.35;100809.03;5089905;28;20032;-26
2023/01/05 05:06:11;;;;;;;45.45;25.52;;;;;;;5.51;93.41;100790.53;5089356;28;20103;-28
2023/01/05 05:08:36;;;;;;;73.72;37.42;;;;;;;5.24;94.66;100782.78;5089901;28;20028;-28
2023/01/05 05:11:02;;;;;;;58.72;30.67;;;;;;;5.23;94.95;100793.53;5089976;28;20032;-28
2023/01/05 05:13:28;;;;;;;59.78;32.25;;;;;;;5.17;94.02;100800.31;5089318;28;20399;-27
2023/01/05 05:15:53;;;;;;;54.15;30.70;;;;;;;4.92;93.83;100769.56;5089837;28;20028;-27
2023/01/05 05:18:20;;;;;;;58.00;30.75;;;;;;;4.96;94.28;100792.03;5070642;28;20107;-28
2023/01/05 05:20:48;;;;;;;54.67;29.08;;;;;;;4.95;92.88;100763.97;5089613;28;20040;-26
2023/01/05 05:23:14;;;;;;;55.78;30.25;;;;;;;5.28;92.49;100804.44;5088398;28;20052;-27
2023/01/05 05:25:39;;;;;;;54.70;27.38;;;;;;;5.60;92.27;100797.47;5089421;28;20039;-27
2023/01/05 05:28:04;;;;;;;80.75;33.58;;;;;;;5.36;92.21;100791.22;5089385;28;20031;-28
2023/01/05 05:30:30;;;;;;;59.10;24.50;;;;;;;5.08;94.80;100793.38;5089368;28;20027;-26
2023/01/05 05:32:55;;;;;;;49.08;25.48;;;;;;;4.74;95.96;100772.34;5089449;28;20480;-27
2023/01/05 05:35:21;;;;;;;58.42;32.08;;;;;;;4.66;97.12;100804.06;5089175;28;20034;-27
2023/01/05 05:37:46;;;;;;;58.40;32.03;;;;;;;4.61;96.76;100780.75;5089578;28;20473;-27
2023/01/05 05:40:11;;;;;;;70.68;38.20;;;;;;;5.01;95.34;100801.13;5071012;28;20070;-28
2023/01/05 05:42:37;;;;;;;97.50;48.80;;;;;;;4.92;96.15;100778.31;5089386;28;20038;-29
2023/01/05 05:45:03;;;;;;;99.78;47.55;;;;;;;4.69;97.65;100775.50;5070840;28;20020;-26
2023/01/05 05:47:28;;;;;;;91.18;40.65;;;;;;;4.66;98.49;100782.91;5089321;28;20377;-27
2023/01/05 05:49:53;;;;;;;90.70;36.28;;;;;;;4.72;99.06;100785.75;5088924;28;20074;-28
2023/01/05 05:52:19;;;;;;;98.55;37.50;;;;;;;4.69;99.49;100783.41;5088851;28;20119;-27
2023/01/05 05:54:45;;;;;;;152.13;61.10;;;;;;;4.61;100.00;100772.84;5089336;28;20085;-26
2023/01/05 05:57:10;;;;;;;82.15;37.22;;;;;;;4.37;100.00;100745.41;5071047;28;20024;-28
2023/01/05 05:59:36;;;;;;;127.90;47.13;;;;;;;4.32;100.00;100766.16;5089111;28;20017;-27
2023/01/05 06:02:01;;;;;;;86.70;32.83;;;;;;;3.93;100.00;100750.84;5070647;28;20134;-28
2023/01/05 06:04:26;;;;;;;87.82;29.98;;;;;;;3.79;100.00;100754.09;5088786;28;20073;-27
2023/01/05 06:06:52;;;;;;;110.15;35.17;;;;;;;3.66;100.00;100743.97;5088984;28;20035;-28
2023/01/05 06:09:17;;;;;;;107.20;37.17;;;;;;;4.15;100.00;100735.44;5088938;28;20031;-28
2023/01/05 06:11:43;;;;;;;74.85;26.60;;;;;;;4.30;100.00;100765.50;5089086;28;20036;-27
2023/01/05 06:14:08;;;;;;;80.35;24.58;;;;;;;4.42;99.79;100737.81;5088628;28;20086;-27
2023/01/05 06:16:33;;;;;;;78.10;23.23;;;;;;;4.77;99.92;100761.47;5088900;28;20475;-31
2023/01/05 06:18:59;;;;;;;87.97;25.27;;;;;;;5.04;99.16;100769.06;5070400;28;20024;-26
2023/01/05 06:21:24;;;;;;;57.03;22.25;;;;;;;4.83;99.33;100745.78;5088725;28;20040;-28
2023/01/05 06:23:50;;;;;;;57.63;22.67;;;;;;;4.87;98.86;100745.47;5070406;28;20048;-27
2023/01/05 06:26:15;;;;;;;58.60;21.38;;;;;;;5.17;98.32;100768.59;5089084;28;20027;-25
2023/01/05 06:28:41;;;;;;;57.38;24.35;;;;;;;4.96;97.88;100761.13;5089141;28;20734;-27
2023/01/05 06:31:06;;;;;;;55.65;35.22;;;;;;;5.11;98.06;100773.69;5088891;28;20499;-26
2023/01/05 06:33:32;;;;;;;75.60;42.72;;;;;;;5.16;96.92;100756.34;5070959;28;20074;-28
2023/01/05 06:35:57;;;;;;;90.00;35.55;;;;;;;5.47;96.75;100774.16;5092761;28;20024;-27
2023/01/05 06:38:24;;;;;;;94.28;44.72;;;;;;;5.20;98.11;100773.53;5092290;28;20078;-28
2023/01/05 06:40:49;;;;;;;102.10;54.92;;;;;;;5.20;97.99;100751.56;5074344;28;20034;-27
2023/01/05 06:43:14;;;;;;;102.65;43.85;;;;;;;5.44;96.80;100743.59;5057605;28;20140;-27
2023/01/05 06:45:40;;;;;;;94.68;45.80;;;;;;;5.47;97.30;100762.75;5092366;28;20027;-26
2023/01/05 06:48:05;;;;;;;92.65;40.55;;;;;;;5.53;97.29;100741.75;5092143;28;20077;-27
2023/01/05 06:50:31;;;;;;;80.53;35.63;;;;;;;5.39;100.00;100737.16;5074010;28;20089;-26
2023/01/05 06:52:57;;;;;;;68.18;30.45;;;;;;;5.53;100.00;100725.88;5092398;28;20032;-27
2023/01/05 06:55:23;;;;;;;51.05;27.55;;;;;;;5.79;100.00;100752.09;5074299;28;20024;-29
2023/01/05 06:57:48;;;;;;;54.78;28.25;;;;;;;5.72;100.00;100729.97;5073984;28;20077;-27
2023/01/05 07:00:15;;;;;;;48.72;23.90;;;;;;;5.88;100.00;100760.81;5091936;28;20036;-30
2023/01/05 07:02:40;;;;;;;55.95;26.55;;;;;;;5.89;100.00;100738.66;5091869;28;20043;-27
2023/01/05 07:05:06;;;;;;;61.30;25.45;;;;;;;5.75;100.00;100748.13;5092159;28;20399;-26
2023/01/05 07:07:32;;;;;;;70.43;27.48;;;;;;;6.12;100.00;100744.03;5091904;28;20040;-26
2023/01/05 07:09:58;;;;;;;34.90;19.83;;;;;;;6.08;100.00;100752.53;5073761;28;20089;-28
2023/01/05 07:12:23;;;;;;;56.78;23.63;;;;;;;6.00;98.86;100733.00;5091521;28;20039;-27
2023/01/05 07:14:49;;;;;;;44.55;22.52;;;;;;;6.17;96.26;100738.22;5091721;28;20039;-26
2023/01/05 07:17:14;;;;;;;63.15;24.20;;;;;;;6.03;96.09;100742.44;5091614;28;20465;-27
2023/01/05 07:19:40;;;;;;;45.00;23.15;;;;;;;5.98;97.31;100735.00;5091708;28;20032;-27
2023/01/05 07:22:06;;;;;;;43.28;21.60;;;;;;;6.11;95.00;100738.91;5091206;28;20048;-27
2023/01/05 07:24:31;;;;;;;38.28;20.33;;;;;;;5.88;95.48;100739.66;5091301;28;20035;-27
2023/01/05 07:26:58;;;;;;;40.72;23.02;;;;;;;5.99;95.99;100728.72;5091851;28;20099;-27
2023/01/05 07:29:23;;;;;;;41.30;24.52;;;;;;;6.21;96.22;100731.59;5091320;28;20024;-27
2023/01/05 07:31:51;;;;;;;36.10;19.80;;;;;;;6.10;95.65;100694.91;5073217;28;20123;-27
2023/01/05 07:34:17;;;;;;;41.13;21.73;;;;;;;6.21;95.33;100698.00;5091060;28;20027;-27
2023/01/05 07:36:42;;;;;;;38.55;23.45;;;;;;;6.32;95.81;100704.72;5091618;28;20024;-27
2023/01/05 07:39:08;;;;;;;42.90;25.60;;;;;;;6.38;97.01;100697.91;5091403;28;20604;-28
2023/01/05 07:41:33;;;;;;;46.72;27.63;;;;;;;6.63;96.93;100690.59;5091188;28;20075;-26
2023/01/05 07:43:59;;;;;;;41.97;24.58;;;;;;;6.89;96.59;100710.59;5090971;28;20460;-29
2023/01/05 07:46:24;;;;;;;55.35;36.88;;;;;;;7.11;94.67;100698.28;5090546;28;20024;-31
2023/01/05 07:48:49;;;;;;;37.60;25.13;;;;;;;7.10;96.34;100699.31;5090951;28;20024;-27
2023/01/05 07:51:15;;;;;;;53.90;34.38;;;;;;;7.16;96.42;100707.34;5090810;28;20028;-26
2023/01/05 07:53:40;;;;;;;47.63;29.38;;;;;;;7.52;95.11;100700.50;5091134;28;20563;-27
2023/01/05 07:56:06;;;;;;;41.97;23.67;;;;;;;7.62;94.44;100695.75;5090803;28;20118;-28
2023/01/05 07:58:32;;;;;;;37.40;22.45;;;;;;;8.03;92.58;100704.06;5090791;28;20040;-28
2023/01/05 08:01:03;;;;;;;41.42;23.45;;;;;;;8.22;92.26;100702.63;5090905;28;20026;-31
2023/01/05 08:03:29;;;;;;;61.95;32.50;;;;;;;8.18;92.04;100701.34;5072412;28;20036;-31
2023/01/05 08:05:54;;;;;;;58.88;32.70;;;;;;;7.98;93.10;100682.53;5072855;28;20028;-29
2023/01/05 08:08:19;;;;;;;64.15;36.72;;;;;;;8.44;92.44;100700.84;5090515;28;20020;-28
2023/01/05 08:10:45;;;;;;;120.97;67.38;;;;;;;8.77;92.56;100700.34;5090943;28;20024;-31
2023/01/05 08:15:56;;;;;;;59.40;32.80;;;;;;;8.94;90.22;100694.75;5075314;28;20525;-27
2023/01/05 08:18:22;;;;;;;52.45;28.55;;;;;;;8.71;91.69;100673.69;5072067;28;20028;-27
2023/01/05 08:20:59;;;;;;;48.42;24.33;;;;;;;8.78;92.90;100691.34;5090844;28;20062;-26
2023/01/05 08:23:26;;;;;;;67.22;39.58;;;;;;;9.06;91.80;100687.88;5090283;28;20062;-27
2023/01/05 08:25:53;;;;;;;51.22;27.23;;;;;;;9.14;92.12;100673.63;5090587;28;20538;-27
2023/01/05 08:28:18;;;;;;;50.83;25.58;;;;;;;9.72;89.23;100681.31;5090423;28;20412;-26
2023/01/05 08:30:44;;;;;;;59.10;32.90;;;;;;;9.94;88.85;100680.16;5090284;28;20464;-27
2023/01/05 08:33:10;;;;;;;48.10;28.42;;;;;;;10.01;87.41;100664.19;5088658;28;20041;-27
2023/01/05 08:35:42;;;;;;;91.80;72.47;;;;;;;10.25;87.37;100660.97;5090119;28;20020;-28
2023/01/05 08:38:09;;;;;;;48.65;32.10;;;;;;;10.27;86.57;100652.78;5089988;28;20028;-29
2023/01/05 08:40:36;;;;;;;47.00;29.88;;;;;;;10.48;84.10;100643.00;5083781;28;20104;-27
2023/01/05 08:43:02;;;;;;;45.10;28.30;;;;;;;10.45;84.68;100650.38;5090213;28;20103;-27
2023/01/05 08:45:28;;;;;;;43.85;28.63;;;;;;;10.58;84.58;100638.06;5090069;28;20265;-28
2023/01/05 08:47:54;;;;;;;44.55;27.20;;;;;;;10.72;83.16;100617.56;5090070;28;20094;-29
2023/01/05 08:50:19;;;;;;;41.72;27.83;;;;;;;10.76;82.55;100618.78;5089567;28;20032;-26
2023/01/05 08:52:44;;;;;;;42.38;28.40;;;;;;;10.99;82.13;100619.19;5090096;28;20063;-30
2023/01/05 08:55:10;;;;;;;47.72;29.92;;;;;;;11.03;81.59;100627.56;5089671;28;20457;-31
2023/01/05 08:57:35;;;;;;;48.28;27.45;;;;;;;10.93;81.32;100624.50;5089684;28;20042;-27
2023/01/05 09:00:02;;;;;;;48.25;28.50;;;;;;;10.95;83.26;100614.44;5071489;28;20085;-28
2023/01/05 09:02:27;;;;;;;43.55;27.98;;;;;;;11.14;82.59;100608.28;5089802;28;20049;-28
2023/01/05 09:04:53;;;;;;;53.03;31.10;;;;;;;11.17;81.68;100583.81;5089568;28;20111;-28
2023/01/05 09:07:19;;;;;;;52.03;30.27;;;;;;;11.15;80.82;100585.06;5054820;28;20080;-26
2023/01/05 09:09:44;;;;;;;57.50;34.10;;;;;;;11.12;82.08;100596.97;5089430;28;20031;-29
2023/01/05 09:12:10;;;;;;;55.70;32.30;;;;;;;11.07;82.29;100596.78;5070806;28;20031;-27
2023/01/05 09:14:35;;;;;;;55.17;33.10;;;;;;;11.23;82.12;100588.31;5089416;28;20031;-28
2023/01/05 09:17:01;;;;;;;61.10;34.05;;;;;;;11.51;80.63;100584.53;5071328;28;20475;-31
2023/01/05 09:19:26;;;;;;;51.10;31.48;;;;;;;11.75;79.14;100585.66;5089604;28;20540;-28
2023/01/05 09:21:52;;;;;;;51.78;31.38;;;;;;;11.70;80.26;100574.78;5089372;28;20054;-27
2023/01/05 09:24:18;;;;;;;54.17;32.00;;;;;;;11.36;80.48;100538.56;5089016;28;20024;-30
2023/01/05 09:26:43;;;;;;;54.53;32.25;;;;;;;12.01;78.75;100552.63;5071071;28;20035;-27
2023/01/05 09:29:10;;;;;;;56.20;34.42;;;;;;;12.14;77.92;100534.84;5089154;28;20086;-29
2023/01/05 09:31:36;;;;;;;54.03;32.08;;;;;;;12.40;77.32;100566.75;5089475;28;20024;-26
2023/01/05 09:34:02;;;;;;;53.70;33.22;;;;;;;12.06;77.06;100550.13;5070749;28;20032;-28
2023/01/05 09:36:28;;;;;;;47.55;32.22;;;;;;;12.26;77.18;100543.81;5071075;28;20039;-33
2023/01/05 09:38:55;;;;;;;51.92;31.10;;;;;;;12.22;77.20;100558.66;5089062;28;20024;-29
2023/01/05 09:41:38;;;;;;;48.85;31.10;;;;;;;12.72;75.22;100547.91;5087860;28;20089;-34
2023/01/05 09:44:11;;;;;;;46.17;30.00;;;;;;;12.50;74.78;100525.28;5088813;28;20031;-29
2023/01/05 09:46:40;;;;;;;45.03;28.40;;;;;;;13.05;73.24;100528.81;5089152;28;20476;-29
2023/01/05 09:49:11;;;;;;;44.95;27.33;;;;;;;13.18;73.32;100521.69;5089004;28;20031;-33
2023/01/05 09:51:37;;;;;;;43.30;28.35;;;;;;;13.26;72.83;100505.31;5070791;28;20036;-31
2023/01/05 09:54:02;;;;;;;44.00;26.02;;;;;;;13.26;72.76;100500.75;5088759;28;20017;-27
2023/01/05 09:56:40;;;;;;;40.05;26.83;;;;;;;13.69;71.31;100498.13;5087738;28;20040;-29
2023/01/05 09:59:18;;;;;;;42.70;27.02;;;;;;;13.80;70.93;100492.00;5088950;28;20807;-26
2023/01/05 10:01:46;;;;;;;38.72;24.48;;;;;;;13.75;69.25;100491.88;5088956;28;20024;-27
2023/01/05 10:04:14;;;;;;;;;;;;;;;13.84;68.90;100494.00;5088828;28;20032;-29
2023/01/05 10:06:45;;;;;;;41.72;25.45;;;;;;;13.64;68.92;100450.59;5089097;28;19914;-28
2023/01/05 10:09:17;;;;;;;38.03;24.98;;;;;;;14.18;67.77;100477.34;5090387;28;20036;-28
2023/01/05 10:14:46;;;;;;;37.42;23.88;;;;;;;14.52;66.65;100445.41;5092746;28;20580;-29
2023/01/05 10:17:15;;;;;;;40.72;23.73;;;;;;;14.64;65.73;100456.97;5092862;28;20482;-27
2023/01/05 10:19:40;;;;;;;;;;;;;;;14.68;65.66;100436.66;5093272;28;20040;-27
2023/01/05 10:22:36;;;;;;;35.70;21.95;;;;;;;14.66;65.41;100436.06;5074489;28;20276;-28
2023/01/05 10:25:26;;;;;;;43.22;30.25;;;;;;;14.73;64.21;100415.28;5056071;28;20032;-27
2023/01/05 10:27:54;;;;;;;34.80;21.85;;;;;;;14.89;64.79;100423.63;5092677;28;20036;-31
2023/01/05 10:30:31;;;;;;;33.25;22.65;;;;;;;15.09;64.05;100426.72;5092018;28;20020;-29
2023/01/05 10:33:09;;;;;;;38.78;23.48;;;;;;;15.29;62.17;100406.66;5089186;28;20028;-29
2023/01/05 10:35:37;;;;;;;32.60;20.73;;;;;;;15.29;61.00;100414.72;5074421;28;20111;-28
2023/01/05 10:38:24;;;;;;;32.78;21.10;;;;;;;15.45;60.94;100397.81;5091951;28;20125;-31
2023/01/05 10:41:06;;;;;;;33.70;20.58;;;;;;;15.95;56.81;100396.19;5093084;28;20114;-28
2023/01/05 10:43:46;;;;;;;33.60;20.25;;;;;;;15.94;57.84;100368.50;5074300;28;20483;-28
2023/01/05 10:46:14;;;;;;;28.08;18.50;;;;;;;15.98;54.38;100377.69;5092445;28;20046;-27
2023/01/05 10:48:40;;;;;;;32.03;19.55;;;;;;;15.93;56.60;100388.38;5092587;28;20029;-28
2023/01/05 10:51:06;;;;;;;27.70;18.95;;;;;;;16.16;54.62;100373.09;5092582;28;20024;-27
2023/01/05 10:53:39;;;;;;;28.23;17.83;;;;;;;15.98;55.01;100393.84;5092139;28;20610;-27
2023/01/05 10:56:27;;;;;;;29.85;17.38;;;;;;;15.01;56.44;100378.75;5091947;28;20552;-30
2023/01/05 10:59:07;;;;;;;27.98;17.83;;;;;;;15.15;55.62;100373.91;5092235;28;20036;-32
2023/01/05 11:01:35;;;;;;;32.45;18.80;;;;;;;15.54;54.54;100366.75;5091586;28;20511;-29
2023/01/05 11:04:08;;;;;;;29.23;18.83;;;;;;;15.75;54.56;100367.94;5053498;28;20067;-27
2023/01/05 11:06:35;;;;;;;29.27;18.55;;;;;;;16.16;53.32;100348.88;5076881;28;20054;-29
2023/01/05 11:09:22;;;;;;;30.85;19.23;;;;;;;16.08;52.59;100336.69;5092008;28;20468;-31
2023/01/05 11:11:56;;;;;;;28.20;17.73;;;;;;;15.98;53.26;100336.53;5091714;28;20460;-29
2023/01/05 11:14:22;;;;;;;26.08;17.52;;;;;;;15.95;52.86;100364.72;5091638;28;20512;-32
2023/01/05 11:16:52;;;;;;;28.55;16.98;;;;;;;15.74;53.05;100357.44;5091708;28;20052;-30
2023/01/05 11:19:24;;;;;;;26.27;17.30;;;;;;;16.25;53.24;100347.38;5091579;28;20034;-29
2023/01/05 11:21:49;;;;;;;27.52;16.02;;;;;;;16.68;51.53;100321.50;5090236;28;20051;-30
2023/01/05 11:24:24;;;;;;;25.90;16.42;;;;;;;17.21;48.84;100317.19;5091346;28;20373;-30
2023/01/05 11:26:54;;;;;;;27.33;17.17;;;;;;;17.07;48.69;100313.31;5091485;28;20790;-27
2023/01/05 11:29:20;;;;;;;26.55;16.90;;;;;;;16.71;49.21;100320.19;5091394;28;20024;-29
2023/01/05 11:31:57;;;;;;;27.85;17.50;;;;;;;16.46;51.31;100316.16;5091634;28;20380;-28
2023/01/05 11:34:25;;;;;;;28.25;17.75;;;;;;;16.39;51.62;100315.53;5091038;28;20124;-30
2023/01/05 11:37:03;;;;;;;28.05;17.73;;;;;;;16.55;50.92;100311.13;5090863;28;20089;-29
2023/01/05 11:39:38;;;;;;;39.83;18.13;;;;;;;16.68;51.40;100302.66;5091368;28;20492;-28
2023/01/05 11:42:23;;;;;;;24.95;15.98;;;;;;;16.84;49.71;100292.88;5090866;28;20032;-28
2023/01/05 11:45:04;;;;;;;24.25;16.42;;;;;;;16.54;50.16;100296.84;5090697;28;20028;-28
2023/01/05 11:47:36;;;;;;;25.85;16.20;;;;;;;16.68;50.51;100275.72;5089815;28;20067;-29
2023/01/05 11:50:24;;;;;;;29.40;19.80;;;;;;;16.77;50.85;100271.50;5090991;28;20056;-27
2023/01/05 11:52:55;;;;;;;26.23;16.02;;;;;;;16.98;50.00;100274.41;5072734;28;20028;-29
2023/01/05 11:55:46;;;;;;;25.85;16.27;;;;;;;17.12;48.96;100285.56;5091059;28;20023;-30